sensor_id;sensor_type;location;lat;lon;timestamp;temperature;humidity
8463;DHT22;4268;52.506;13.462;2024-03-06T00:02:05;3.90;99.90
8463;DHT22;4268;52.506;13.462;2024-03-06T00:04:30;3.80;99.90
8463;DHT22;4268;52.506;13.462;2024-03-06T00:06:56;3.80;99.90
8463;DHT22;4268;52.506;13.462;2024-03-06T00:09:23;3.70;99.90
8463;DHT22;4268;52.506;13.462;2024-03-06T00:11:49;3.70;99.90
8463;DHT22;4268;52.506;13.462;2024-03-06T00:14:16;3.60;99.90
8463;DHT22;4268;52.506;13.462;2024-03-06T00:16:42;3.70;99.90
8463;DHT22;4268;52.506;13.462;2024-03-06T00:19:08;3.70;99.90
8463;DHT22;4268;52.506;13.462;2024-03-06T00:21:34;3.70;99.90
8463;DHT22;4268;52.506;13.462;2024-03-06T00:24:01;3.70;99.90
8463;DHT22;4268;52.506;13.462;2024-03-06T00:26:27;3.70;99.90
8463;DHT22;4268;52.506;13.462;2024-03-06T00:28:53;3.60;99.90
8463;DHT22;4268;52.506;13.462;2024-03-06T00:31:18;3.70;99.90
8463;DHT22;4268;52.506;13.462;2024-03-06T00:33:43;3.60;99.90
8463;DHT22;4268;52.506;13.462;2024-03-06T00:36:09;3.60;99.90
8463;DHT22;4268;52.506;13.462;2024-03-06T00:38:34;3.60;99.90
8463;DHT22;4268;52.506;13.462;2024-03-06T00:41:00;3.60;99.90
8463;DHT22;4268;52.506;13.462;2024-03-06T00:43:25;3.60;99.90
8463;DHT22;4268;52.506;13.462;2024-03-06T00:45:51;3.60;99.90
8463;DHT22;4268;52.506;13.462;2024-03-06T00:48:16;3.60;99.90
8463;DHT22;4268;52.506;13.462;2024-03-06T00:50:45;3.70;99.90
8463;DHT22;4268;52.506;13.462;2024-03-06T00:53:10;3.70;99.90
8463;DHT22;4268;52.506;13.462;2024-03-06T00:55:36;3.70;99.90
8463;DHT22;4268;52.506;13.462;2024-03-06T00:58:02;3.70;99.90
8463;DHT22;4268;52.506;13.462;2024-03-06T01:00:29;3.70;99.90
8463;DHT22;4268;52.506;13.462;2024-03-06T01:02:55;3.70;99.90
8463;DHT22;4268;52.506;13.462;2024-03-06T01:05:20;3.70;99.90
8463;DHT22;4268;52.506;13.462;2024-03-06T01:07:46;3.60;99.90
8463;DHT22;4268;52.506;13.462;2024-03-06T01:10:11;3.60;99.90
8463;DHT22;4268;52.506;13.462;2024-03-06T01:12:37;3.70;99.90
8463;DHT22;4268;52.506;13.462;2024-03-06T01:15:03;3.70;99.90
8463;DHT22;4268;52.506;13.462;2024-03-06T01:17:29;3.70;99.90
8463;DHT22;4268;52.506;13.462;2024-03-06T01:19:54;3.60;99.90
8463;DHT22;4268;52.506;13.462;2024-03-06T01:22:20;3.60;99.90
8463;DHT22;4268;52.506;13.462;2024-03-06T01:24:46;3.60;99.90
8463;DHT22;4268;52.506;13.462;2024-03-06T01:27:15;3.50;99.90
8463;DHT22;4268;52.506;13.462;2024-03-06T01:29:41;3.50;99.90
8463;DHT22;4268;52.506;13.462;2024-03-06T01:32:06;3.50;99.90
8463;DHT22;4268;52.506;13.462;2024-03-06T01:34:32;3.50;99.90
8463;DHT22;4268;52.506;13.462;2024-03-06T01:36:57;3.50;99.90
8463;DHT22;4268;52.506;13.462;2024-03-06T01:39:23;3.40;99.90
8463;DHT22;4268;52.506;13.462;2024-03-06T01:41:50;3.50;99.90
8463;DHT22;4268;52.506;13.462;2024-03-06T01:44:17;3.40;99.90
8463;DHT22;4268;52.506;13.462;2024-03-06T01:46:43;3.50;99.90
8463;DHT22;4268;52.506;13.462;2024-03-06T01:49:11;3.40;99.90
8463;DHT22;4268;52.506;13.462;2024-03-06T01:51:38;3.40;99.90
8463;DHT22;4268;52.506;13.462;2024-03-06T01:54:03;3.40;99.90
8463;DHT22;4268;52.506;13.462;2024-03-06T01:56:31;3.40;99.90
8463;DHT22;4268;52.506;13.462;2024-03-06T01:58:58;3.40;99.90
8463;DHT22;4268;52.506;13.462;2024-03-06T02:01:24;3.40;99.90
8463;DHT22;4268;52.506;13.462;2024-03-06T02:03:51;3.40;99.90
8463;DHT22;4268;52.506;13.462;2024-03-06T02:06:17;3.40;99.90
8463;DHT22;4268;52.506;13.462;2024-03-06T02:08:45;3.40;99.90
8463;DHT22;4268;52.506;13.462;2024-03-06T02:11:11;3.30;99.90
8463;DHT22;4268;52.506;13.462;2024-03-06T02:13:37;3.30;99.90
8463;DHT22;4268;52.506;13.462;2024-03-06T02:16:02;3.30;99.90
8463;DHT22;4268;52.506;13.462;2024-03-06T02:18:28;3.30;99.90
8463;DHT22;4268;52.506;13.462;2024-03-06T02:20:53;3.20;99.90
8463;DHT22;4268;52.506;13.462;2024-03-06T02:23:19;3.20;99.90
8463;DHT22;4268;52.506;13.462;2024-03-06T02:25:46;3.20;99.90
8463;DHT22;4268;52.506;13.462;2024-03-06T02:28:12;3.20;99.90
8463;DHT22;4268;52.506;13.462;2024-03-06T02:30:38;3.20;99.90
8463;DHT22;4268;52.506;13.462;2024-03-06T02:33:04;3.20;99.90
8463;DHT22;4268;52.506;13.462;2024-03-06T02:35:31;3.20;99.90
8463;DHT22;4268;52.506;13.462;2024-03-06T02:38:01;3.10;99.90
8463;DHT22;4268;52.506;13.462;2024-03-06T02:40:28;3.10;99.90
8463;DHT22;4268;52.506;13.462;2024-03-06T02:42:54;3.10;99.90
8463;DHT22;4268;52.506;13.462;2024-03-06T02:45:19;3.10;99.90
8463;DHT22;4268;52.506;13.462;2024-03-06T02:47:45;3.10;99.90
8463;DHT22;4268;52.506;13.462;2024-03-06T02:50:10;3.10;99.90
8463;DHT22;4268;52.506;13.462;2024-03-06T02:52:36;3.60;99.90
8463;DHT22;4268;52.506;13.462;2024-03-06T02:55:02;3.00;99.90
8463;DHT22;4268;52.506;13.462;2024-03-06T02:57:28;3.00;99.90
8463;DHT22;4268;52.506;13.462;2024-03-06T02:59:55;3.00;99.90
8463;DHT22;4268;52.506;13.462;2024-03-06T03:02:20;3.00;99.90
8463;DHT22;4268;52.506;13.462;2024-03-06T03:04:46;2.90;99.90
8463;DHT22;4268;52.506;13.462;2024-03-06T03:07:11;2.90;99.90
8463;DHT22;4268;52.506;13.462;2024-03-06T03:09:37;2.90;99.90
8463;DHT22;4268;52.506;13.462;2024-03-06T03:12:03;2.90;99.90
8463;DHT22;4268;52.506;13.462;2024-03-06T03:14:29;2.90;99.90
8463;DHT22;4268;52.506;13.462;2024-03-06T03:16:54;2.90;99.90
8463;DHT22;4268;52.506;13.462;2024-03-06T03:19:20;2.90;99.90
8463;DHT22;4268;52.506;13.462;2024-03-06T03:21:45;2.90;99.90
8463;DHT22;4268;52.506;13.462;2024-03-06T03:24:11;2.90;99.90
8463;DHT22;4268;52.506;13.462;2024-03-06T03:26:36;2.80;99.90
8463;DHT22;4268;52.506;13.462;2024-03-06T03:29:02;2.80;99.90
8463;DHT22;4268;52.506;13.462;2024-03-06T03:31:28;2.80;99.90
8463;DHT22;4268;52.506;13.462;2024-03-06T03:33:54;2.80;99.90
8463;DHT22;4268;52.506;13.462;2024-03-06T03:36:19;2.70;99.90
8463;DHT22;4268;52.506;13.462;2024-03-06T03:38:45;2.70;99.90
8463;DHT22;4268;52.506;13.462;2024-03-06T03:41:11;2.70;99.90
8463;DHT22;4268;52.506;13.462;2024-03-06T03:43:42;2.80;99.90
8463;DHT22;4268;52.506;13.462;2024-03-06T03:46:07;2.80;99.90
8463;DHT22;4268;52.506;13.462;2024-03-06T03:48:34;2.70;99.90
8463;DHT22;4268;52.506;13.462;2024-03-06T03:51:01;2.80;99.90
8463;DHT22;4268;52.506;13.462;2024-03-06T03:53:28;2.80;99.90
8463;DHT22;4268;52.506;13.462;2024-03-06T03:55:54;2.80;99.90
8463;DHT22;4268;52.506;13.462;2024-03-06T03:58:19;2.70;99.90
8463;DHT22;4268;52.506;13.462;2024-03-06T04:00:45;2.70;99.90
8463;DHT22;4268;52.506;13.462;2024-03-06T04:03:10;2.70;99.90
8463;DHT22;4268;52.506;13.462;2024-03-06T04:05:36;2.70;99.90
8463;DHT22;4268;52.506;13.462;2024-03-06T04:08:02;2.60;99.90
8463;DHT22;4268;52.506;13.462;2024-03-06T04:10:27;2.60;99.90
8463;DHT22;4268;52.506;13.462;2024-03-06T04:12:53;2.70;99.90
8463;DHT22;4268;52.506;13.462;2024-03-06T04:15:20;2.60;99.90
8463;DHT22;4268;52.506;13.462;2024-03-06T04:17:45;2.60;99.90
8463;DHT22;4268;52.506;13.462;2024-03-06T04:20:11;2.60;99.90
8463;DHT22;4268;52.506;13.462;2024-03-06T04:22:38;2.60;99.90
8463;DHT22;4268;52.506;13.462;2024-03-06T04:25:04;2.70;99.90
8463;DHT22;4268;52.506;13.462;2024-03-06T04:27:30;2.60;99.90
8463;DHT22;4268;52.506;13.462;2024-03-06T04:29:56;2.50;99.90
8463;DHT22;4268;52.506;13.462;2024-03-06T04:32:21;2.50;99.90
8463;DHT22;4268;52.506;13.462;2024-03-06T04:34:47;2.60;99.90
8463;DHT22;4268;52.506;13.462;2024-03-06T04:37:12;2.50;99.90
8463;DHT22;4268;52.506;13.462;2024-03-06T04:39:39;2.50;99.90
8463;DHT22;4268;52.506;13.462;2024-03-06T04:42:04;2.50;99.90
8463;DHT22;4268;52.506;13.462;2024-03-06T04:44:33;2.50;99.90
8463;DHT22;4268;52.506;13.462;2024-03-06T04:46:59;2.50;99.90
8463;DHT22;4268;52.506;13.462;2024-03-06T04:49:25;2.80;99.90
8463;DHT22;4268;52.506;13.462;2024-03-06T04:51:50;2.50;99.90
8463;DHT22;4268;52.506;13.462;2024-03-06T04:54:16;2.50;99.90
8463;DHT22;4268;52.506;13.462;2024-03-06T04:56:41;2.50;99.90
8463;DHT22;4268;52.506;13.462;2024-03-06T04:59:07;2.50;99.90
8463;DHT22;4268;52.506;13.462;2024-03-06T05:01:33;2.50;99.90
8463;DHT22;4268;52.506;13.462;2024-03-06T05:03:58;2.50;99.90
8463;DHT22;4268;52.506;13.462;2024-03-06T05:06:24;2.50;99.90
8463;DHT22;4268;52.506;13.462;2024-03-06T05:08:50;2.50;99.90
8463;DHT22;4268;52.506;13.462;2024-03-06T05:11:15;2.50;99.90
8463;DHT22;4268;52.506;13.462;2024-03-06T05:13:42;2.50;99.90
8463;DHT22;4268;52.506;13.462;2024-03-06T05:16:08;2.60;99.90
8463;DHT22;4268;52.506;13.462;2024-03-06T05:18:35;2.50;99.90
8463;DHT22;4268;52.506;13.462;2024-03-06T05:21:00;2.50;99.90
8463;DHT22;4268;52.506;13.462;2024-03-06T05:23:29;2.50;99.90
8463;DHT22;4268;52.506;13.462;2024-03-06T05:25:55;2.40;99.90
8463;DHT22;4268;52.506;13.462;2024-03-06T05:28:20;2.50;99.90
8463;DHT22;4268;52.506;13.462;2024-03-06T05:30:45;2.90;99.90
8463;DHT22;4268;52.506;13.462;2024-03-06T05:33:11;2.70;99.90
8463;DHT22;4268;52.506;13.462;2024-03-06T05:35:37;2.50;99.90
8463;DHT22;4268;52.506;13.462;2024-03-06T05:38:02;2.50;99.90
8463;DHT22;4268;52.506;13.462;2024-03-06T05:40:28;2.50;99.90
8463;DHT22;4268;52.506;13.462;2024-03-06T05:42:53;2.60;99.90
8463;DHT22;4268;52.506;13.462;2024-03-06T05:45:19;2.50;99.90
8463;DHT22;4268;52.506;13.462;2024-03-06T05:47:45;2.50;99.90
8463;DHT22;4268;52.506;13.462;2024-03-06T05:50:12;2.50;99.90
8463;DHT22;4268;52.506;13.462;2024-03-06T05:52:37;2.50;99.90
8463;DHT22;4268;52.506;13.462;2024-03-06T05:55:05;2.60;99.90
8463;DHT22;4268;52.506;13.462;2024-03-06T05:57:31;1.10;99.90
8463;DHT22;4268;52.506;13.462;2024-03-06T05:59:57;2.50;99.90
8463;DHT22;4268;52.506;13.462;2024-03-06T06:02:23;2.60;99.90
8463;DHT22;4268;52.506;13.462;2024-03-06T06:04:49;2.50;99.90
8463;DHT22;4268;52.506;13.462;2024-03-06T06:07:15;2.50;99.90
8463;DHT22;4268;52.506;13.462;2024-03-06T06:09:41;2.70;99.90
8463;DHT22;4268;52.506;13.462;2024-03-06T06:12:06;2.60;99.90
8463;DHT22;4268;52.506;13.462;2024-03-06T06:14:32;2.70;99.90
8463;DHT22;4268;52.506;13.462;2024-03-06T06:16:57;2.70;99.90
8463;DHT22;4268;52.506;13.462;2024-03-06T06:19:23;2.70;99.90
8463;DHT22;4268;52.506;13.462;2024-03-06T06:21:49;2.80;99.90
8463;DHT22;4268;52.506;13.462;2024-03-06T06:24:14;2.80;99.90
8463;DHT22;4268;52.506;13.462;2024-03-06T06:26:40;2.80;99.90
8463;DHT22;4268;52.506;13.462;2024-03-06T06:29:06;2.20;99.90
8463;DHT22;4268;52.506;13.462;2024-03-06T06:31:32;2.80;99.90
8463;DHT22;4268;52.506;13.462;2024-03-06T06:33:58;2.80;99.90
8463;DHT22;4268;52.506;13.462;2024-03-06T06:36:25;2.90;99.90
8463;DHT22;4268;52.506;13.462;2024-03-06T06:38:52;2.90;99.90
8463;DHT22;4268;52.506;13.462;2024-03-06T06:41:18;2.90;99.90
8463;DHT22;4268;52.506;13.462;2024-03-06T06:43:44;2.90;99.90
8463;DHT22;4268;52.506;13.462;2024-03-06T06:46:10;3.00;99.90
8463;DHT22;4268;52.506;13.462;2024-03-06T06:48:35;3.60;99.90
8463;DHT22;4268;52.506;13.462;2024-03-06T06:51:01;2.90;99.90
8463;DHT22;4268;52.506;13.462;2024-03-06T06:53:39;3.80;99.90
8463;DHT22;4268;52.506;13.462;2024-03-06T06:56:06;5.50;99.90
8463;DHT22;4268;52.506;13.462;2024-03-06T06:58:31;7.30;99.90
8463;DHT22;4268;52.506;13.462;2024-03-06T07:00:57;8.50;99.90
8463;DHT22;4268;52.506;13.462;2024-03-06T07:03:22;9.60;99.90
8463;DHT22;4268;52.506;13.462;2024-03-06T07:05:54;10.00;99.90
8463;DHT22;4268;52.506;13.462;2024-03-06T07:08:20;10.70;99.90
8463;DHT22;4268;52.506;13.462;2024-03-06T07:10:46;11.40;99.90
8463;DHT22;4268;52.506;13.462;2024-03-06T07:13:11;12.00;99.80
8463;DHT22;4268;52.506;13.462;2024-03-06T07:15:37;12.40;97.90
8463;DHT22;4268;52.506;13.462;2024-03-06T07:18:03;13.40;96.50
8463;DHT22;4268;52.506;13.462;2024-03-06T07:20:28;13.00;96.00
8463;DHT22;4268;52.506;13.462;2024-03-06T07:22:54;13.50;94.80
8463;DHT22;4268;52.506;13.462;2024-03-06T07:25:20;13.70;94.10
8463;DHT22;4268;52.506;13.462;2024-03-06T07:27:45;14.00;93.70
8463;DHT22;4268;52.506;13.462;2024-03-06T07:30:11;13.90;92.40
8463;DHT22;4268;52.506;13.462;2024-03-06T07:32:37;14.10;92.60
8463;DHT22;4268;52.506;13.462;2024-03-06T07:35:03;14.60;91.70
8463;DHT22;4268;52.506;13.462;2024-03-06T07:37:29;14.40;91.80
8463;DHT22;4268;52.506;13.462;2024-03-06T07:39:54;15.00;91.00
8463;DHT22;4268;52.506;13.462;2024-03-06T07:42:20;15.60;88.60
8463;DHT22;4268;52.506;13.462;2024-03-06T07:44:46;16.70;89.70
8463;DHT22;4268;52.506;13.462;2024-03-06T07:47:12;15.70;88.30
8463;DHT22;4268;52.506;13.462;2024-03-06T07:49:38;15.90;86.60
8463;DHT22;4268;52.506;13.462;2024-03-06T07:52:04;16.30;83.80
8463;DHT22;4268;52.506;13.462;2024-03-06T07:54:29;16.30;83.20
8463;DHT22;4268;52.506;13.462;2024-03-06T07:56:55;15.80;84.10
8463;DHT22;4268;52.506;13.462;2024-03-06T07:59:20;15.90;84.40
8463;DHT22;4268;52.506;13.462;2024-03-06T08:01:46;15.90;84.30
8463;DHT22;4268;52.506;13.462;2024-03-06T08:04:12;16.20;82.20
8463;DHT22;4268;52.506;13.462;2024-03-06T08:06:37;16.50;81.10
8463;DHT22;4268;52.506;13.462;2024-03-06T08:09:03;15.30;81.90
8463;DHT22;4268;52.506;13.462;2024-03-06T08:11:29;14.00;84.40
8463;DHT22;4268;52.506;13.462;2024-03-06T08:13:58;12.50;87.90
8463;DHT22;4268;52.506;13.462;2024-03-06T08:16:24;11.10;90.40
8463;DHT22;4268;52.506;13.462;2024-03-06T08:18:49;9.60;93.00
8463;DHT22;4268;52.506;13.462;2024-03-06T08:21:15;8.50;95.20
8463;DHT22;4268;52.506;13.462;2024-03-06T08:23:40;7.90;97.20
8463;DHT22;4268;52.506;13.462;2024-03-06T08:26:06;7.40;98.60
8463;DHT22;4268;52.506;13.462;2024-03-06T08:28:31;6.90;99.90
8463;DHT22;4268;52.506;13.462;2024-03-06T08:30:57;6.60;99.90
8463;DHT22;4268;52.506;13.462;2024-03-06T08:33:22;6.40;99.90
8463;DHT22;4268;52.506;13.462;2024-03-06T08:35:48;6.30;99.90
8463;DHT22;4268;52.506;13.462;2024-03-06T08:38:14;6.30;99.90
8463;DHT22;4268;52.506;13.462;2024-03-06T08:40:39;6.40;99.90
8463;DHT22;4268;52.506;13.462;2024-03-06T08:43:07;6.40;99.90
8463;DHT22;4268;52.506;13.462;2024-03-06T08:45:34;6.20;99.90
8463;DHT22;4268;52.506;13.462;2024-03-06T08:47:59;6.30;99.90
8463;DHT22;4268;52.506;13.462;2024-03-06T08:50:25;6.40;99.90
8463;DHT22;4268;52.506;13.462;2024-03-06T08:52:51;6.40;99.90
8463;DHT22;4268;52.506;13.462;2024-03-06T08:55:17;6.50;99.90
8463;DHT22;4268;52.506;13.462;2024-03-06T08:57:42;6.50;99.90
8463;DHT22;4268;52.506;13.462;2024-03-06T09:00:09;6.40;99.90
8463;DHT22;4268;52.506;13.462;2024-03-06T09:02:36;6.40;99.90
8463;DHT22;4268;52.506;13.462;2024-03-06T09:05:05;6.50;99.90
8463;DHT22;4268;52.506;13.462;2024-03-06T09:07:30;6.60;99.90
8463;DHT22;4268;52.506;13.462;2024-03-06T09:09:56;6.70;99.90
8463;DHT22;4268;52.506;13.462;2024-03-06T09:12:22;6.70;99.90
8463;DHT22;4268;52.506;13.462;2024-03-06T09:14:48;6.80;99.90
8463;DHT22;4268;52.506;13.462;2024-03-06T09:17:13;6.90;99.90
8463;DHT22;4268;52.506;13.462;2024-03-06T09:19:40;6.80;99.90
8463;DHT22;4268;52.506;13.462;2024-03-06T09:22:06;7.00;99.90
8463;DHT22;4268;52.506;13.462;2024-03-06T09:24:31;6.90;99.90
8463;DHT22;4268;52.506;13.462;2024-03-06T09:26:57;6.90;99.90
8463;DHT22;4268;52.506;13.462;2024-03-06T09:29:23;7.10;99.90
8463;DHT22;4268;52.506;13.462;2024-03-06T09:31:49;7.00;99.90
8463;DHT22;4268;52.506;13.462;2024-03-06T09:34:15;8.50;99.90
8463;DHT22;4268;52.506;13.462;2024-03-06T09:36:47;7.30;99.90
8463;DHT22;4268;52.506;13.462;2024-03-06T09:39:17;7.60;99.90
8463;DHT22;4268;52.506;13.462;2024-03-06T09:41:45;8.00;99.90
8463;DHT22;4268;52.506;13.462;2024-03-06T09:44:12;8.10;99.90
8463;DHT22;4268;52.506;13.462;2024-03-06T09:46:42;8.10;99.90
8463;DHT22;4268;52.506;13.462;2024-03-06T09:49:07;8.10;99.90
8463;DHT22;4268;52.506;13.462;2024-03-06T09:51:35;8.20;99.90
8463;DHT22;4268;52.506;13.462;2024-03-06T09:54:01;8.10;99.90
8463;DHT22;4268;52.506;13.462;2024-03-06T09:56:26;8.10;99.90
8463;DHT22;4268;52.506;13.462;2024-03-06T09:58:52;8.10;99.90
8463;DHT22;4268;52.506;13.462;2024-03-06T10:01:19;8.00;99.90
8463;DHT22;4268;52.506;13.462;2024-03-06T10:03:45;7.80;99.90
8463;DHT22;4268;52.506;13.462;2024-03-06T10:06:11;7.60;99.90
8463;DHT22;4268;52.506;13.462;2024-03-06T10:08:41;7.60;99.90
8463;DHT22;4268;52.506;13.462;2024-03-06T10:11:06;7.50;99.90
8463;DHT22;4268;52.506;13.462;2024-03-06T10:13:32;7.40;99.90
8463;DHT22;4268;52.506;13.462;2024-03-06T10:16:00;7.30;99.90
8463;DHT22;4268;52.506;13.462;2024-03-06T10:18:30;7.30;99.90
8463;DHT22;4268;52.506;13.462;2024-03-06T10:20:57;7.20;99.90
8463;DHT22;4268;52.506;13.462;2024-03-06T10:23:23;7.20;99.90
8463;DHT22;4268;52.506;13.462;2024-03-06T10:25:49;7.30;99.90
8463;DHT22;4268;52.506;13.462;2024-03-06T10:28:21;7.60;99.90
8463;DHT22;4268;52.506;13.462;2024-03-06T10:30:51;7.80;99.90
8463;DHT22;4268;52.506;13.462;2024-03-06T10:33:18;8.00;99.90
8463;DHT22;4268;52.506;13.462;2024-03-06T10:35:45;8.10;99.90
8463;DHT22;4268;52.506;13.462;2024-03-06T10:38:11;8.20;99.90
8463;DHT22;4268;52.506;13.462;2024-03-06T10:40:38;8.30;99.90
8463;DHT22;4268;52.506;13.462;2024-03-06T10:43:05;8.30;99.90
8463;DHT22;4268;52.506;13.462;2024-03-06T10:48:14;8.50;99.90
8463;DHT22;4268;52.506;13.462;2024-03-06T10:50:40;8.70;99.90
8463;DHT22;4268;52.506;13.462;2024-03-06T10:53:17;9.00;99.90
8463;DHT22;4268;52.506;13.462;2024-03-06T10:55:43;8.90;99.30
8463;DHT22;4268;52.506;13.462;2024-03-06T10:58:13;9.00;99.60
8463;DHT22;4268;52.506;13.462;2024-03-06T11:00:41;9.00;99.60
8463;DHT22;4268;52.506;13.462;2024-03-06T11:03:09;8.90;99.90
8463;DHT22;4268;52.506;13.462;2024-03-06T11:05:42;8.70;99.90
8463;DHT22;4268;52.506;13.462;2024-03-06T11:08:09;8.50;99.90
8463;DHT22;4268;52.506;13.462;2024-03-06T11:10:37;8.40;99.90
8463;DHT22;4268;52.506;13.462;2024-03-06T11:13:25;8.40;99.90
8463;DHT22;4268;52.506;13.462;2024-03-06T11:15:57;8.60;99.90
8463;DHT22;4268;52.506;13.462;2024-03-06T11:23:32;9.20;99.00
8463;DHT22;4268;52.506;13.462;2024-03-06T11:26:05;9.40;98.60
8463;DHT22;4268;52.506;13.462;2024-03-06T11:28:36;9.40;98.50
8463;DHT22;4268;52.506;13.462;2024-03-06T11:31:10;9.60;98.60
8463;DHT22;4268;52.506;13.462;2024-03-06T11:33:46;9.90;97.90
8463;DHT22;4268;52.506;13.462;2024-03-06T11:36:21;9.70;97.10
8463;DHT22;4268;52.506;13.462;2024-03-06T11:38:58;9.60;97.10
8463;DHT22;4268;52.506;13.462;2024-03-06T11:41:29;9.50;97.00
8463;DHT22;4268;52.506;13.462;2024-03-06T11:43:56;9.50;97.00
8463;DHT22;4268;52.506;13.462;2024-03-06T11:48:58;9.80;95.90
8463;DHT22;4268;52.506;13.462;2024-03-06T11:51:24;9.90;95.70
8463;DHT22;4268;52.506;13.462;2024-03-06T11:53:51;9.90;95.40
8463;DHT22;4268;52.506;13.462;2024-03-06T11:56:18;9.80;95.40
8463;DHT22;4268;52.506;13.462;2024-03-06T11:58:45;9.80;95.80
8463;DHT22;4268;52.506;13.462;2024-03-06T12:01:11;9.80;96.40
8463;DHT22;4268;52.506;13.462;2024-03-06T12:03:36;9.90;96.40
8463;DHT22;4268;52.506;13.462;2024-03-06T12:06:02;9.90;96.40
8463;DHT22;4268;52.506;13.462;2024-03-06T12:08:28;9.80;96.60
8463;DHT22;4268;52.506;13.462;2024-03-06T12:10:54;9.60;96.70
8463;DHT22;4268;52.506;13.462;2024-03-06T12:13:23;9.40;97.00
8463;DHT22;4268;52.506;13.462;2024-03-06T12:15:50;9.30;97.30
8463;DHT22;4268;52.506;13.462;2024-03-06T12:18:17;9.40;97.60
8463;DHT22;4268;52.506;13.462;2024-03-06T12:20:43;9.80;97.40
8463;DHT22;4268;52.506;13.462;2024-03-06T12:23:19;10.10;96.50
8463;DHT22;4268;52.506;13.462;2024-03-06T12:25:46;10.20;95.30
8463;DHT22;4268;52.506;13.462;2024-03-06T12:28:12;10.30;95.00
8463;DHT22;4268;52.506;13.462;2024-03-06T12:30:42;10.30;94.80
8463;DHT22;4268;52.506;13.462;2024-03-06T12:33:08;10.20;94.90
8463;DHT22;4268;52.506;13.462;2024-03-06T12:35:34;10.10;95.10
8463;DHT22;4268;52.506;13.462;2024-03-06T12:37:59;10.00;95.00
8463;DHT22;4268;52.506;13.462;2024-03-06T12:40:25;9.90;95.40
8463;DHT22;4268;52.506;13.462;2024-03-06T12:42:51;10.00;95.00
8463;DHT22;4268;52.506;13.462;2024-03-06T12:45:18;10.00;94.90
8463;DHT22;4268;52.506;13.462;2024-03-06T12:47:47;10.20;95.00
8463;DHT22;4268;52.506;13.462;2024-03-06T12:50:16;10.30;94.70
8463;DHT22;4268;52.506;13.462;2024-03-06T12:52:41;10.20;94.70
8463;DHT22;4268;52.506;13.462;2024-03-06T12:55:10;10.10;95.00
8463;DHT22;4268;52.506;13.462;2024-03-06T12:57:36;10.00;95.20
8463;DHT22;4268;52.506;13.462;2024-03-06T13:00:01;9.90;95.90
8463;DHT22;4268;52.506;13.462;2024-03-06T13:02:27;9.90;95.90
8463;DHT22;4268;52.506;13.462;2024-03-06T13:04:53;10.00;95.70
8463;DHT22;4268;52.506;13.462;2024-03-06T13:07:18;10.20;95.80
8463;DHT22;4268;52.506;13.462;2024-03-06T13:09:44;10.40;94.90
8463;DHT22;4268;52.506;13.462;2024-03-06T13:12:10;10.60;94.80
8463;DHT22;4268;52.506;13.462;2024-03-06T13:14:36;10.70;94.30
8463;DHT22;4268;52.506;13.462;2024-03-06T13:17:02;10.40;94.00
8463;DHT22;4268;52.506;13.462;2024-03-06T13:19:28;10.10;93.90
8463;DHT22;4268;52.506;13.462;2024-03-06T13:21:53;9.80;94.80
8463;DHT22;4268;52.506;13.462;2024-03-06T13:24:19;9.70;95.20
8463;DHT22;4268;52.506;13.462;2024-03-06T13:26:45;9.70;95.50
8463;DHT22;4268;52.506;13.462;2024-03-06T13:29:11;9.70;94.90
8463;DHT22;4268;52.506;13.462;2024-03-06T13:31:37;9.70;94.60
8463;DHT22;4268;52.506;13.462;2024-03-06T13:34:03;9.60;94.40
8463;DHT22;4268;52.506;13.462;2024-03-06T13:36:29;9.70;94.70
8463;DHT22;4268;52.506;13.462;2024-03-06T13:38:55;9.70;94.70
8463;DHT22;4268;52.506;13.462;2024-03-06T13:41:21;9.60;94.90
8463;DHT22;4268;52.506;13.462;2024-03-06T13:43:46;9.40;95.10
8463;DHT22;4268;52.506;13.462;2024-03-06T13:46:12;9.30;95.30
8463;DHT22;4268;52.506;13.462;2024-03-06T13:48:37;9.30;95.80
8463;DHT22;4268;52.506;13.462;2024-03-06T13:51:03;9.20;96.10
8463;DHT22;4268;52.506;13.462;2024-03-06T13:53:30;9.20;96.40
8463;DHT22;4268;52.506;13.462;2024-03-06T13:55:55;9.30;95.70
8463;DHT22;4268;52.506;13.462;2024-03-06T13:58:21;9.30;95.10
8463;DHT22;4268;52.506;13.462;2024-03-06T14:00:46;9.30;94.80
8463;DHT22;4268;52.506;13.462;2024-03-06T14:03:12;9.30;94.80
8463;DHT22;4268;52.506;13.462;2024-03-06T14:05:38;9.20;94.50
8463;DHT22;4268;52.506;13.462;2024-03-06T14:08:04;9.10;94.60
8463;DHT22;4268;52.506;13.462;2024-03-06T14:10:30;9.00;94.80
8463;DHT22;4268;52.506;13.462;2024-03-06T14:12:59;9.00;94.70
8463;DHT22;4268;52.506;13.462;2024-03-06T14:15:25;9.00;93.90
8463;DHT22;4268;52.506;13.462;2024-03-06T14:17:54;8.90;93.90
8463;DHT22;4268;52.506;13.462;2024-03-06T14:20:20;8.70;94.10
8463;DHT22;4268;52.506;13.462;2024-03-06T14:22:46;8.60;94.50
8463;DHT22;4268;52.506;13.462;2024-03-06T14:25:13;8.60;94.80
8463;DHT22;4268;52.506;13.462;2024-03-06T14:27:38;8.50;95.30
8463;DHT22;4268;52.506;13.462;2024-03-06T14:30:05;8.40;96.30
8463;DHT22;4268;52.506;13.462;2024-03-06T14:32:33;8.30;96.70
8463;DHT22;4268;52.506;13.462;2024-03-06T14:34:58;8.30;97.10
8463;DHT22;4268;52.506;13.462;2024-03-06T14:37:24;8.40;97.20
8463;DHT22;4268;52.506;13.462;2024-03-06T14:39:50;8.50;97.00
8463;DHT22;4268;52.506;13.462;2024-03-06T14:42:16;8.50;96.90
8463;DHT22;4268;52.506;13.462;2024-03-06T14:44:42;8.50;96.60
8463;DHT22;4268;52.506;13.462;2024-03-06T14:47:09;8.50;95.90
8463;DHT22;4268;52.506;13.462;2024-03-06T14:49:34;8.60;96.40
8463;DHT22;4268;52.506;13.462;2024-03-06T14:52:00;8.70;96.70
8463;DHT22;4268;52.506;13.462;2024-03-06T14:54:25;8.80;96.70
8463;DHT22;4268;52.506;13.462;2024-03-06T14:56:52;8.80;96.70
8463;DHT22;4268;52.506;13.462;2024-03-06T14:59:18;8.80;96.50
8463;DHT22;4268;52.506;13.462;2024-03-06T15:01:44;8.80;96.10
8463;DHT22;4268;52.506;13.462;2024-03-06T15:04:10;8.90;96.20
8463;DHT22;4268;52.506;13.462;2024-03-06T15:06:37;8.80;96.60
8463;DHT22;4268;52.506;13.462;2024-03-06T15:09:03;8.90;96.80
8463;DHT22;4268;52.506;13.462;2024-03-06T15:11:30;8.90;97.10
8463;DHT22;4268;52.506;13.462;2024-03-06T15:13:58;8.80;97.30
8463;DHT22;4268;52.506;13.462;2024-03-06T15:16:23;8.90;97.40
8463;DHT22;4268;52.506;13.462;2024-03-06T15:18:49;8.90;97.50
8463;DHT22;4268;52.506;13.462;2024-03-06T15:21:17;8.80;97.70
8463;DHT22;4268;52.506;13.462;2024-03-06T15:23:42;8.80;97.90
8463;DHT22;4268;52.506;13.462;2024-03-06T15:26:08;8.80;98.30
8463;DHT22;4268;52.506;13.462;2024-03-06T15:28:33;8.70;98.50
8463;DHT22;4268;52.506;13.462;2024-03-06T15:30:59;8.60;98.80
8463;DHT22;4268;52.506;13.462;2024-03-06T15:33:29;8.70;99.00
8463;DHT22;4268;52.506;13.462;2024-03-06T15:35:55;8.60;99.20
8463;DHT22;4268;52.506;13.462;2024-03-06T15:38:20;8.60;99.50
8463;DHT22;4268;52.506;13.462;2024-03-06T15:40:46;8.60;99.60
8463;DHT22;4268;52.506;13.462;2024-03-06T15:43:16;8.70;99.80
8463;DHT22;4268;52.506;13.462;2024-03-06T15:45:41;8.60;99.90
8463;DHT22;4268;52.506;13.462;2024-03-06T15:48:07;8.60;99.90
8463;DHT22;4268;52.506;13.462;2024-03-06T15:50:32;8.50;99.90
8463;DHT22;4268;52.506;13.462;2024-03-06T15:52:58;8.50;99.90
8463;DHT22;4268;52.506;13.462;2024-03-06T15:55:24;8.50;99.90
8463;DHT22;4268;52.506;13.462;2024-03-06T15:57:49;8.50;99.90
8463;DHT22;4268;52.506;13.462;2024-03-06T16:00:15;8.50;99.90
8463;DHT22;4268;52.506;13.462;2024-03-06T16:02:42;8.40;99.90
8463;DHT22;4268;52.506;13.462;2024-03-06T16:05:08;8.40;99.90